Time;durP1;ratioP1;P1;durP2;ratioP2;P2;SDS_P1;SDS_P2;PMS_P1;PMS_P2;Temp;Humidity;BMP_temperature;BMP_pressure;BME280_temperature;BME280_humidity;BME280_pressure;Samples;Min_cycle;Max_cycle;Signal;HPM_P1;HPM_P2
2021/08/08 00:00:48;;;;;;;3.05;2.80;;;13.50;99.90;;;14.33;100.00;97299.13;5144254;28;20330;-64
2021/08/08 00:03:21;;;;;;;2.70;2.50;;;13.40;99.90;;;14.32;100.00;97300.81;5143774;28;20200;-63
2021/08/08 00:05:55;;;;;;;3.28;2.45;;;13.40;99.90;;;14.31;100.00;97298.22;5145247;28;20262;-62
2021/08/08 00:08:31;;;;;;;4.38;2.78;;;13.40;99.90;;;14.34;100.00;97290.59;5144221;28;20247;-64
2021/08/08 00:11:07;;;;;;;2.67;2.40;;;13.40;99.90;;;14.32;100.00;97287.09;5146132;28;20263;-65
2021/08/08 00:13:40;;;;;;;4.10;2.70;;;13.50;99.90;;;14.28;100.00;97295.53;5145115;28;20227;-63
2021/08/08 00:16:13;;;;;;;5.68;3.65;;;13.40;99.90;;;14.27;100.00;97297.22;5145825;28;20294;-62
2021/08/08 00:18:46;;;;;;;3.90;3.60;;;13.40;99.90;;;14.26;100.00;97294.63;5146059;28;20298;-64
2021/08/08 00:21:19;;;;;;;7.20;5.45;;;13.40;99.90;;;14.30;100.00;97305.03;5145651;28;20310;-65
2021/08/08 00:23:53;;;;;;;4.75;4.10;;;13.50;99.90;;;14.28;100.00;97304.13;5139872;28;20291;-65
2021/08/08 00:26:27;;;;;;;3.17;2.88;;;13.50;99.90;;;14.32;100.00;97307.66;5144884;28;20548;-63
2021/08/08 00:29:01;;;;;;;3.42;3.13;;;13.50;99.90;;;14.34;100.00;97314.63;5125798;29;20299;-62
2021/08/08 00:31:34;;;;;;;6.85;3.95;;;13.40;99.90;;;14.31;100.00;97306.81;5125640;28;20256;-64
2021/08/08 00:34:07;;;;;;;4.75;3.38;;;13.40;99.90;;;14.27;100.00;97304.94;5144674;28;20200;-62
2021/08/08 00:36:40;;;;;;;4.55;3.25;;;13.40;99.90;;;14.23;100.00;97305.66;5144424;28;20322;-63
2021/08/08 00:39:16;;;;;;;3.97;3.33;;;13.40;99.90;;;14.25;100.00;97314.31;5145087;28;20204;-62
2021/08/08 00:41:51;;;;;;;3.58;3.28;;;13.40;99.90;;;14.24;100.00;97317.69;5144959;28;20322;-64
2021/08/08 00:44:24;;;;;;;2.78;2.58;;;13.40;99.90;;;14.21;100.00;97317.59;5145394;28;20210;-64
2021/08/08 00:46:57;;;;;;;2.60;2.40;;;13.30;99.90;;;14.18;100.00;97327.75;5145059;28;20284;-71
2021/08/08 00:49:30;;;;;;;2.30;2.10;;;13.30;99.90;;;14.16;100.00;97319.13;5144946;28;20294;-65
2021/08/08 00:52:04;;;;;;;3.60;2.30;;;13.20;99.90;;;14.15;100.00;97327.66;5143431;28;20242;-64
2021/08/08 00:54:38;;;;;;;2.70;2.50;;;13.20;99.90;;;14.13;100.00;97330.16;5144418;28;20200;-64
2021/08/08 00:57:13;;;;;;;2.40;2.20;;;13.10;99.90;;;14.08;100.00;97326.59;5144855;28;20224;-64
2021/08/08 00:59:46;;;;;;;1.88;1.77;;;13.10;99.90;;;14.04;100.00;97329.84;5144505;28;20200;-63
2021/08/08 01:02:20;;;;;;;2.72;2.28;;;13.10;99.90;;;14.03;100.00;97333.25;5144430;28;20211;-68
2021/08/08 01:05:03;;;;;;;2.90;2.13;;;13.10;99.90;;;14.00;100.00;97324.56;5143614;28;20290;-67
2021/08/08 01:07:44;;;;;;;2.15;2.05;;;13.00;99.90;;;13.97;100.00;97330.47;5141505;28;20200;-64
2021/08/08 01:10:18;;;;;;;3.00;2.67;;;13.00;99.90;;;13.94;100.00;97333.81;5144024;28;20262;-65
2021/08/08 01:12:55;;;;;;;3.78;2.45;;;13.00;99.90;;;13.92;100.00;97337.16;5144502;28;20204;-64
2021/08/08 01:15:29;;;;;;;3.58;2.80;;;12.90;99.90;;;13.85;100.00;97337.72;5144376;28;20259;-67
2021/08/08 01:18:03;;;;;;;3.00;2.80;;;12.90;99.90;;;13.85;100.00;97343.75;5144376;28;20718;-64
2021/08/08 01:20:37;;;;;;;3.30;2.38;;;12.90;99.90;;;13.86;100.00;97354.91;5144744;28;20246;-66
2021/08/08 01:23:14;;;;;;;3.00;2.80;;;13.00;99.90;;;13.87;100.00;97357.53;5144053;28;20208;-65
2021/08/08 01:25:50;;;;;;;2.85;2.50;;;13.00;99.90;;;13.82;100.00;97359.06;5144453;28;20679;-65
2021/08/08 01:28:23;;;;;;;2.50;2.30;;;12.90;99.90;;;13.80;100.00;97352.13;5144344;28;20202;-64
2021/08/08 01:30:56;;;;;;;3.30;3.00;;;12.90;99.90;;;13.82;100.00;97364.22;5143923;28;20220;-65
2021/08/08 01:33:29;;;;;;;2.78;2.47;;;13.00;99.90;;;13.83;100.00;97360.81;5143634;28;20207;-65
2021/08/08 01:36:02;;;;;;;2.80;2.60;;;13.00;99.90;;;13.82;100.00;97369.34;5144500;28;20290;-65
2021/08/08 01:38:39;;;;;;;3.97;2.80;;;13.00;99.90;;;13.86;100.00;97370.31;5144283;28;20232;-64
2021/08/08 01:41:17;;;;;;;3.50;2.90;;;13.00;99.90;;;13.84;100.00;97374.53;5140865;28;20223;-64
2021/08/08 01:43:53;;;;;;;2.78;2.58;;;13.00;99.90;;;13.80;100.00;97370.97;5144102;28;20776;-68
2021/08/08 01:46:28;;;;;;;2.85;2.65;;;12.90;99.90;;;13.78;100.00;97376.88;5144701;28;20667;-63
2021/08/08 01:49:03;;;;;;;2.90;2.58;;;12.90;99.90;;;13.80;100.00;97381.25;5143577;28;20207;-65
2021/08/08 01:51:37;;;;;;;2.72;2.53;;;12.90;99.90;;;13.73;100.00;97376.69;5143178;28;20250;-64
2021/08/08 01:54:10;;;;;;;2.88;2.67;;;12.90;99.90;;;13.73;100.00;97369.00;5144059;28;20218;-64
2021/08/08 01:56:45;;;;;;;3.55;2.65;;;12.90;99.90;;;13.74;100.00;97381.03;5144020;28;20590;-64
2021/08/08 01:59:18;;;;;;;2.92;2.72;;;12.90;99.90;;;13.75;100.00;97375.94;5143469;28;20717;-64
2021/08/08 02:01:51;;;;;;;3.50;3.08;;;12.90;99.90;;;13.66;100.00;97377.31;5185492;22;20230;-61
2021/08/08 02:04:26;;;;;;;3.42;2.67;;;12.80;99.90;;;13.68;100.00;97370.53;5179287;28;20194;-61
2021/08/08 02:06:59;;;;;;;3.75;2.83;;;12.80;99.90;;;13.68;100.00;97380.81;5168678;28;20194;-60
2021/08/08 02:09:32;;;;;;;2.58;2.47;;;12.80;99.90;;;13.70;100.00;97382.59;5185769;28;20209;-61
2021/08/08 02:12:07;;;;;;;3.00;2.70;;;12.90;99.90;;;13.71;100.00;97383.50;5196882;28;20305;-60
2021/08/08 02:14:40;;;;;;;3.85;2.80;;;12.90;99.90;;;13.71;100.00;97380.91;5183973;28;20212;-60
2021/08/08 02:17:13;;;;;;;4.85;2.95;;;12.90;99.90;;;13.72;100.00;97390.38;5183857;28;20294;-60
2021/08/08 02:19:47;;;;;;;6.35;2.60;;;12.90;99.90;;;13.66;100.00;97388.44;5184546;28;20201;-60
2021/08/08 02:22:20;;;;;;;2.85;2.67;;;12.80;99.90;;;13.72;100.00;97387.78;5184106;28;20309;-60
2021/08/08 02:24:53;;;;;;;3.13;2.88;;;12.90;99.90;;;13.76;100.00;97392.22;5184168;28;20199;-60
2021/08/08 02:27:28;;;;;;;2.95;2.75;;;13.00;99.90;;;13.76;100.00;97397.34;5164199;28;20203;-61
2021/08/08 02:30:01;;;;;;;3.15;2.88;;;12.90;99.90;;;13.77;100.00;97405.97;5168076;28;20237;-61
2021/08/08 02:32:34;;;;;;;3.30;2.83;;;13.00;99.90;;;13.81;100.00;97413.81;5192512;28;20219;-61
2021/08/08 02:35:08;;;;;;;3.17;2.88;;;13.00;99.90;;;13.78;100.00;97417.97;5184527;28;20199;-61
2021/08/08 02:37:42;;;;;;;3.85;2.95;;;12.90;99.90;;;13.80;100.00;97418.91;5184140;28;20258;-61
2021/08/08 02:40:15;;;;;;;3.47;2.75;;;13.00;99.90;;;13.77;100.00;97419.66;5188706;28;20207;-61
2021/08/08 02:42:49;;;;;;;4.97;3.10;;;13.00;99.90;;;13.79;100.00;97420.59;5187553;28;20309;-61
2021/08/08 02:45:22;;;;;;;3.30;3.10;;;12.90;99.90;;;13.81;100.00;97413.81;5187891;28;20293;-60
2021/08/08 02:47:56;;;;;;;4.75;3.40;;;13.00;99.90;;;13.83;100.00;97407.06;5187900;28;20199;-61
2021/08/08 02:50:29;;;;;;;3.85;3.30;;;13.00;99.90;;;13.87;100.00;97415.75;5187312;28;20206;-60
2021/08/08 02:53:02;;;;;;;2.90;2.70;;;13.10;99.90;;;13.89;100.00;97411.53;5188160;28;20648;-61
2021/08/08 02:55:36;;;;;;;3.15;2.90;;;13.10;99.90;;;13.93;100.00;97408.25;5188055;28;20203;-61
2021/08/08 02:58:10;;;;;;;3.08;2.78;;;13.20;99.90;;;13.96;100.00;97410.94;5208421;28;20236;-61
2021/08/08 03:00:43;;;;;;;3.50;2.80;;;13.10;99.90;;;13.93;100.00;97403.13;5206941;28;20211;-60
2021/08/08 03:03:16;;;;;;;2.58;2.40;;;13.00;99.90;;;13.85;100.00;97409.66;5191583;28;20198;-60
2021/08/08 03:05:50;;;;;;;2.75;2.58;;;12.90;99.90;;;13.82;100.00;97414.69;5188525;28;20202;-61
2021/08/08 03:08:23;;;;;;;2.63;2.47;;;12.90;99.90;;;13.83;100.00;97417.31;5197138;28;20198;-60
2021/08/08 03:10:57;;;;;;;2.70;2.47;;;13.00;99.90;;;13.81;100.00;97429.22;5186763;28;20226;-60
2021/08/08 03:13:31;;;;;;;2.88;2.63;;;12.90;99.90;;;13.78;100.00;97433.38;5187185;28;20206;-61
2021/08/08 03:16:05;;;;;;;4.32;2.80;;;12.90;99.90;;;13.81;100.00;97436.06;5188038;28;20212;-61
2021/08/08 03:18:39;;;;;;;4.15;2.65;;;13.00;99.90;;;13.81;100.00;97447.22;5186721;28;20230;-61
2021/08/08 03:21:12;;;;;;;2.95;2.75;;;12.90;99.90;;;13.82;100.00;97456.69;5187079;28;20219;-60
2021/08/08 03:23:45;;;;;;;3.90;2.83;;;12.90;99.90;;;13.76;100.00;97461.56;5187434;28;20208;-60
2021/08/08 03:26:18;;;;;;;2.75;2.55;;;12.80;99.90;;;13.65;100.00;97467.97;5186443;28;20209;-61
2021/08/08 03:28:53;;;;;;;3.15;2.85;;;12.70;99.90;;;13.67;100.00;97471.50;5186529;28;20588;-60
2021/08/08 03:31:27;;;;;;;2.90;2.40;;;12.70;99.90;;;13.61;100.00;97471.25;5187435;28;20252;-60
2021/08/08 03:34:00;;;;;;;2.90;2.70;;;12.70;99.90;;;13.64;100.00;97489.34;5186918;28;20202;-60
2021/08/08 03:36:33;;;;;;;2.72;2.53;;;12.80;99.90;;;13.58;100.00;97481.41;5204415;28;20307;-61
2021/08/08 03:39:06;;;;;;;3.47;3.17;;;12.70;99.90;;;13.61;100.00;97482.41;5205730;28;20248;-61
2021/08/08 03:41:39;;;;;;;4.45;3.03;;;12.70;99.90;;;13.60;100.00;97482.38;5207706;28;20222;-61
2021/08/08 03:44:14;;;;;;;3.78;2.90;;;12.80;99.90;;;13.59;100.00;97488.28;5207652;28;20208;-60
2021/08/08 03:46:47;;;;;;;3.75;2.72;;;12.70;99.90;;;13.65;100.00;97502.28;5191617;28;20292;-61
2021/08/08 03:49:20;;;;;;;3.50;3.10;;;12.80;99.90;;;13.70;100.00;97490.47;5188338;28;20203;-60
2021/08/08 03:51:53;;;;;;;3.40;3.00;;;12.90;99.90;;;13.69;100.00;97493.84;5188144;28;20230;-61
2021/08/08 03:54:27;;;;;;;3.47;3.13;;;12.90;99.90;;;13.74;100.00;97496.63;5186875;28;20645;-61
2021/08/08 03:57:00;;;;;;;2.92;2.63;;;12.80;99.90;;;13.70;100.00;97502.44;5187204;28;20297;-58
2021/08/08 03:59:34;;;;;;;3.05;2.75;;;12.70;99.90;;;13.67;100.00;97503.19;5186655;28;20233;-61
2021/08/08 04:02:07;;;;;;;5.28;3.20;;;12.70;99.90;;;13.57;100.00;97505.34;5191947;28;20243;-61
2021/08/08 04:04:40;;;;;;;4.30;2.83;;;12.70;99.90;;;13.58;100.00;97507.97;5186792;28;20202;-61
2021/08/08 04:07:13;;;;;;;3.22;3.00;;;12.70;99.90;;;13.61;100.00;97512.34;5186031;28;20233;-61
2021/08/08 04:09:47;;;;;;;3.08;2.80;;;12.70;99.90;;;13.61;100.00;97507.22;5185655;28;20285;-61
2021/08/08 04:12:20;;;;;;;2.97;2.78;;;12.70;99.90;;;13.60;100.00;97515.75;5185819;28;20311;-61
2021/08/08 04:14:54;;;;;;;3.50;3.20;;;12.70;99.90;;;13.62;100.00;97515.00;5186416;28;20290;-60
2021/08/08 04:17:27;;;;;;;3.20;2.90;;;12.70;99.90;;;13.61;100.00;97514.91;5186531;28;20201;-61
2021/08/08 04:20:00;;;;;;;3.40;3.10;;;12.80;99.90;;;13.65;100.00;97519.34;5186152;28;20222;-61
2021/08/08 04:22:33;;;;;;;3.45;3.15;;;12.80;99.90;;;13.68;100.00;97525.50;5185395;28;20221;-60
2021/08/08 04:25:07;;;;;;;4.03;3.00;;;12.80;99.90;;;13.71;100.00;97525.63;5186417;28;20191;-61
2021/08/08 04:27:40;;;;;;;2.95;2.75;;;12.80;99.90;;;13.76;100.00;97523.22;5186199;28;20286;-61
2021/08/08 04:30:15;;;;;;;3.42;3.13;;;12.90;99.90;;;13.85;100.00;97523.59;5185121;28;20217;-60
2021/08/08 04:32:48;;;;;;;3.47;3.10;;;13.00;99.90;;;13.87;100.00;97526.22;5185465;28;20591;-61
2021/08/08 04:35:22;;;;;;;3.70;3.40;;;13.00;99.90;;;13.93;100.00;97537.59;5185756;28;20283;-61
2021/08/08 04:37:55;;;;;;;5.55;3.13;;;13.10;99.90;;;13.87;100.00;97521.94;5185643;28;20237;-60
2021/08/08 04:40:29;;;;;;;3.20;3.00;;;13.00;99.90;;;13.98;100.00;97536.06;5184998;28;20218;-60
2021/08/08 04:43:05;;;;;;;3.40;3.10;;;13.10;99.90;;;13.96;100.00;97541.97;5185841;28;20301;-61
2021/08/08 04:45:39;;;;;;;2.60;2.40;;;12.90;99.90;;;13.90;100.00;97542.59;5185884;28;20285;-61
2021/08/08 04:48:12;;;;;;;3.83;2.90;;;12.90;99.90;;;13.88;100.00;97549.41;5185890;28;20669;-61
2021/08/08 04:50:46;;;;;;;2.97;2.78;;;12.90;99.90;;;13.88;100.00;97549.41;5185831;28;20191;-60
2021/08/08 04:53:20;;;;;;;3.00;2.80;;;12.90;99.90;;;13.87;100.00;97552.78;5185874;28;20841;-60
2021/08/08 04:55:53;;;;;;;3.13;2.83;;;12.90;99.90;;;13.90;100.00;97554.59;5186417;28;20195;-61
2021/08/08 04:58:26;;;;;;;4.00;2.70;;;12.90;99.90;;;13.93;100.00;97547.00;5185777;28;20576;-63
2021/08/08 05:01:00;;;;;;;3.30;3.00;;;12.90;99.90;;;13.91;100.00;97557.22;5190084;28;20230;-62
2021/08/08 05:03:34;;;;;;;3.30;2.47;;;12.90;99.90;;;13.92;100.00;97550.41;5186526;28;20212;-62
2021/08/08 05:06:07;;;;;;;3.80;2.72;;;12.90;99.90;;;13.93;100.00;97547.88;5185968;28;20639;-62
2021/08/08 05:08:40;;;;;;;3.20;2.90;;;12.90;99.90;;;13.97;100.00;97539.47;5183910;28;20297;-62
2021/08/08 05:11:17;;;;;;;2.92;2.70;;;13.00;99.90;;;14.07;100.00;97544.97;5192189;28;20318;-62
2021/08/08 05:13:50;;;;;;;3.08;2.88;;;13.10;99.90;;;14.13;100.00;97545.19;5190736;28;20676;-62
2021/08/08 05:16:24;;;;;;;3.20;2.97;;;13.20;99.90;;;14.22;100.00;97542.09;5185988;28;20198;-61
2021/08/08 05:18:57;;;;;;;2.90;2.70;;;13.30;99.90;;;14.36;100.00;97539.22;5185249;28;20201;-62
2021/08/08 05:21:30;;;;;;;2.92;2.53;;;13.20;99.90;;;14.45;100.00;97536.13;5184683;28;20712;-60
2021/08/08 05:24:04;;;;;;;3.25;2.80;;;13.30;99.90;;;14.62;100.00;97541.88;5185628;28;20201;-60
2021/08/08 05:26:37;;;;;;;2.40;2.20;;;13.40;99.90;;;15.12;100.00;97542.81;5185060;28;20199;-61
2021/08/08 05:29:10;;;;;;;2.90;2.70;;;13.80;99.90;;;15.77;100.00;97541.53;5185680;28;20289;-62
2021/08/08 05:31:45;;;;;;;2.50;2.38;;;14.20;99.90;;;16.38;100.00;97527.03;5183960;28;20223;-62
2021/08/08 05:34:18;;;;;;;3.83;2.53;;;14.50;99.90;;;16.96;100.00;97527.81;5184772;28;20198;-61
2021/08/08 05:36:51;;;;;;;2.63;2.20;;;15.00;99.90;;;17.51;100.00;97529.22;5183721;28;20201;-62
2021/08/08 05:39:24;;;;;;;2.22;2.13;;;15.20;99.90;;;17.94;98.62;97527.69;5184847;28;20528;-60
2021/08/08 05:41:57;;;;;;;1.90;1.80;;;15.60;99.90;;;18.31;94.90;97525.88;5183926;28;20227;-61
2021/08/08 05:44:30;;;;;;;2.33;1.98;;;15.90;99.90;;;18.70;92.35;97535.31;5184902;28;20194;-60
2021/08/08 05:47:05;;;;;;;2.88;1.95;;;16.10;99.90;;;19.04;86.20;97538.59;5182909;28;20201;-60
2021/08/08 05:49:39;;;;;;;3.03;1.88;;;16.40;99.90;;;19.38;85.27;97539.19;5183366;28;20198;-60
2021/08/08 05:52:13;;;;;;;2.40;2.20;;;16.50;99.90;;;19.67;83.08;97531.94;5179046;28;20226;-60
2021/08/08 05:54:46;;;;;;;2.45;2.25;;;16.90;99.90;;;20.01;82.06;97541.09;5184436;28;20293;-60
2021/08/08 05:57:19;;;;;;;1.70;1.60;;;17.30;99.90;;;20.27;79.27;97545.78;5183938;28;20199;-60
2021/08/08 05:59:52;;;;;;;1.77;1.67;;;17.50;99.90;;;20.51;75.11;97551.28;5182785;28;20218;-60
2021/08/08 06:02:26;;;;;;;2.45;2.13;;;17.80;99.90;;;20.49;73.25;97553.00;5182110;28;20324;-60
2021/08/08 06:04:59;;;;;;;2.60;2.30;;;18.00;99.90;;;20.35;74.69;97549.34;5183309;28;20202;-60
2021/08/08 06:07:33;;;;;;;2.40;2.20;;;18.00;99.90;;;20.59;73.29;97554.88;5183758;28;20301;-60
2021/08/08 06:10:07;;;;;;;3.47;2.00;;;18.10;99.90;;;20.48;72.55;97562.50;5189278;28;20198;-61
2021/08/08 06:12:40;;;;;;;2.20;2.00;;;18.10;99.90;;;20.84;73.84;97563.00;5183386;28;20229;-60
2021/08/08 06:15:13;;;;;;;2.33;1.73;;;18.20;99.90;;;21.34;73.17;97562.66;5186858;28;20206;-60
2021/08/08 06:17:48;;;;;;;2.13;1.90;;;18.50;99.90;;;21.70;69.29;97566.47;5186506;28;20198;-61
2021/08/08 06:20:21;;;;;;;1.75;1.60;;;18.90;99.90;;;22.20;69.17;97551.25;5186741;28;20214;-60
2021/08/08 06:22:54;;;;;;;2.38;1.92;;;19.30;99.90;;;22.84;66.24;97557.66;5192321;28;20222;-61
2021/08/08 06:25:27;;;;;;;5.13;1.70;;;19.70;99.90;;;22.84;63.86;97561.13;5186702;28;20206;-61
2021/08/08 06:28:01;;;;;;;2.03;1.60;;;19.70;99.90;;;23.31;62.37;97564.75;5186061;28;20289;-61
2021/08/08 06:30:34;;;;;;;1.67;1.48;;;20.00;99.90;;;23.47;59.88;97570.88;5186583;28;20749;-60
2021/08/08 06:33:08;;;;;;;2.25;1.40;;;20.30;99.90;;;24.01;59.80;97569.19;5193774;28;20285;-61
2021/08/08 06:35:42;;;;;;;1.55;1.45;;;20.60;99.90;;;24.17;57.96;97576.09;5186443;28;20850;-60
2021/08/08 06:38:15;;;;;;;2.10;1.30;;;20.90;99.90;;;24.34;57.51;97577.81;5186270;28;20205;-60
2021/08/08 06:40:48;;;;;;;1.58;1.25;;;21.00;99.90;;;24.66;56.50;97576.00;5186560;28;20317;-61
2021/08/08 06:43:21;;;;;;;2.00;1.73;;;21.20;99.90;;;24.53;55.12;97576.94;5185203;28;20598;-60
2021/08/08 06:45:54;;;;;;;1.85;1.48;;;21.30;99.90;;;24.63;54.33;97578.63;5185583;28;20198;-61
2021/08/08 06:48:30;;;;;;;2.25;1.30;;;21.40;99.90;;;24.92;56.31;97582.88;5185220;28;20209;-61
2021/08/08 06:51:04;;;;;;;2.22;1.20;;;21.70;99.90;;;24.99;55.20;97581.13;5185755;28;20248;-59
2021/08/08 06:53:37;;;;;;;3.15;1.30;;;21.80;99.90;;;25.23;54.80;97581.03;5185508;28;20649;-60
2021/08/08 06:56:10;;;;;;;1.83;1.10;;;22.00;99.90;;;25.13;54.04;97574.09;5185715;28;20205;-61
2021/08/08 06:58:43;;;;;;;1.25;1.08;;;22.10;99.90;;;25.39;54.36;97568.72;5189920;28;20198;-61
2021/08/08 07:01:17;;;;;;;1.10;0.95;;;22.30;99.90;;;25.60;51.53;97578.16;5183612;28;20317;-61
2021/08/08 07:03:52;;;;;;;1.33;0.95;;;22.50;99.90;;;25.68;51.25;97580.75;5186820;28;20613;-61
2021/08/08 07:06:25;;;;;;;3.20;1.02;;;22.60;99.90;;;25.63;51.01;97573.78;5185443;28;20734;-64
2021/08/08 07:08:58;;;;;;;1.10;1.00;;;22.70;99.90;;;25.75;52.63;97566.69;5189714;28;20201;-61
2021/08/08 07:11:31;;;;;;;2.05;1.02;;;22.70;99.90;;;25.98;51.25;97567.44;5185214;28;20213;-61
2021/08/08 07:14:04;;;;;;;1.45;1.20;;;23.00;99.90;;;26.10;50.34;97565.56;5187742;28;20285;-61
2021/08/08 07:16:37;;;;;;;2.33;1.23;;;23.10;99.90;;;26.08;50.71;97576.06;5185276;28;20201;-61
2021/08/08 07:19:12;;;;;;;2.00;1.00;;;23.10;99.90;;;26.12;50.40;97582.13;5185304;28;20202;-64
2021/08/08 07:21:45;;;;;;;1.08;0.98;;;23.10;99.90;;;26.08;49.78;97583.06;5184258;28;20252;-63
2021/08/08 07:24:18;;;;;;;1.30;1.13;;;23.10;99.90;;;26.34;49.70;97585.44;5183014;28;20233;-63
2021/08/08 07:26:51;;;;;;;2.63;1.20;;;23.10;99.90;;;26.47;49.76;97593.16;5184789;28;20465;-63
2021/08/08 07:29:24;;;;;;;1.92;1.50;;;23.30;99.90;;;26.74;48.65;97592.00;5181992;28;20589;-63
2021/08/08 07:32:00;;;;;;;1.33;1.20;;;23.50;99.90;;;26.91;47.40;97591.81;5185687;28;20241;-63
2021/08/08 07:34:35;;;;;;;1.45;1.00;;;23.50;99.90;;;27.10;45.84;97607.28;5184832;28;20288;-63
2021/08/08 07:37:08;;;;;;;1.88;1.23;;;23.60;99.90;;;27.07;45.90;97591.59;5185310;28;20559;-63
2021/08/08 07:39:41;;;;;;;2.67;0.93;;;23.30;99.90;;;26.92;46.27;97598.78;5185136;28;20760;-64
2021/08/08 07:42:14;;;;;;;1.38;0.90;;;23.50;99.90;;;27.14;45.63;97606.38;5187788;28;20252;-64
2021/08/08 07:44:48;;;;;;;1.25;0.98;;;23.50;99.90;;;27.46;44.55;97602.47;5184060;28;20212;-64
2021/08/08 07:47:21;;;;;;;1.70;1.10;;;23.80;99.90;;;27.84;43.43;97597.56;5184985;28;20213;-64
2021/08/08 07:49:55;;;;;;;1.45;0.90;;;24.10;99.90;;;27.87;43.07;97606.25;5184935;28;20212;-63
2021/08/08 07:52:28;;;;;;;1.20;1.00;;;24.30;99.90;;;28.10;42.47;97598.00;5185135;28;20220;-64
2021/08/08 07:55:01;;;;;;;1.65;1.05;;;24.10;99.90;;;28.13;42.89;97611.09;5185412;28;20304;-62
2021/08/08 07:57:35;;;;;;;1.75;0.98;;;24.50;99.90;;;28.35;41.62;97603.69;5181276;28;20214;-65
2021/08/08 08:00:10;;;;;;;2.22;1.10;;;24.50;99.70;;;28.07;42.01;97610.31;5180660;28;20280;-63
2021/08/08 08:02:43;;;;;;;2.38;1.20;;;24.40;99.40;;;27.47;41.85;97606.84;5175500;28;20740;-64
2021/08/08 08:05:18;;;;;;;1.70;1.10;;;24.30;98.40;;;27.08;43.80;97614.34;5170008;28;20210;-63
2021/08/08 08:07:51;;;;;;;1.23;0.80;;;24.10;99.30;;;26.80;44.84;97619.91;5172720;28;20515;-63
2021/08/08 08:10:25;;;;;;;1.60;0.95;;;24.30;99.40;;;26.88;45.41;97615.44;5183583;28;20661;-66
2021/08/08 08:12:58;;;;;;;1.00;1.00;;;24.60;99.40;;;26.87;44.76;97621.59;5185005;28;20217;-62
2021/08/08 08:15:31;;;;;;;1.40;1.30;;;24.60;98.90;;;26.72;44.84;97611.25;5182724;28;20281;-62
2021/08/08 08:18:04;;;;;;;1.45;1.20;;;24.50;98.90;;;26.49;46.25;97617.59;5183937;28;20286;-62
2021/08/08 08:20:39;;;;;;;2.25;1.20;;;24.10;99.80;;;26.45;46.58;97620.28;5184563;28;20765;-63
2021/08/08 08:23:12;;;;;;;2.65;1.35;;;24.20;99.90;;;26.37;45.46;97619.47;5184020;28;20680;-63
2021/08/08 08:25:45;;;;;;;1.73;1.02;;;24.50;98.70;;;26.08;46.42;97609.25;5183450;28;20206;-63
2021/08/08 08:28:19;;;;;;;1.33;1.23;;;24.00;99.90;;;25.80;47.09;97617.31;5184414;28;20202;-63
2021/08/08 08:30:52;;;;;;;2.67;1.23;;;23.70;99.80;;;25.41;47.98;97619.31;5184137;28;20769;-64
2021/08/08 08:33:26;;;;;;;1.80;1.20;;;23.40;99.90;;;25.24;48.26;97621.13;5180328;28;20618;-63
2021/08/08 08:36:01;;;;;;;2.30;1.48;;;23.00;99.90;;;24.80;49.26;97624.78;5185769;28;20750;-63
2021/08/08 08:38:34;;;;;;;2.08;1.33;;;22.40;99.90;;;24.38;50.82;97629.19;5179689;28;20204;-63
2021/08/08 08:41:08;;;;;;;1.83;1.50;;;22.30;99.90;;;24.59;51.55;97631.81;5183688;28;20229;-63
2021/08/08 08:43:43;;;;;;;1.30;1.20;;;22.70;99.90;;;24.81;50.14;97627.41;5183131;28;20205;-62
2021/08/08 08:46:16;;;;;;;1.80;1.40;;;22.90;99.90;;;24.66;50.98;97638.75;5182800;28;20210;-63
2021/08/08 08:48:52;;;;;;;1.40;1.30;;;23.00;99.90;;;24.54;50.45;97633.56;5183416;28;20292;-62
2021/08/08 08:51:32;;;;;;;1.45;1.30;;;22.70;99.90;;;24.34;49.58;97630.06;5183545;28;20277;-61
2021/08/08 08:54:06;;;;;;;2.75;1.30;;;22.20;99.90;;;24.07;51.42;97629.25;5182397;28;20681;-63
2021/08/08 08:56:39;;;;;;;2.05;1.42;;;22.00;99.90;;;23.95;51.31;97634.44;5183424;28;20198;-63
2021/08/08 08:59:12;;;;;;;1.60;1.30;;;21.90;99.90;;;23.94;51.95;97636.19;5180098;28;20549;-62
2021/08/08 09:01:46;;;;;;;2.20;1.35;;;21.90;99.90;;;23.82;52.35;97633.56;5182760;28;20226;-63
2021/08/08 09:04:19;;;;;;;1.55;1.30;;;21.80;99.90;;;23.62;52.57;97643.94;5179181;28;20206;-62
2021/08/08 09:06:54;;;;;;;1.92;1.35;;;21.60;99.90;;;23.33;53.47;97642.16;5179474;28;20615;-62
2021/08/08 09:09:27;;;;;;;2.50;1.50;;;21.30;99.90;;;22.98;54.12;97633.31;5183060;28;20288;-62
2021/08/08 09:12:00;;;;;;;1.75;1.48;;;21.10;99.90;;;22.69;55.49;97628.78;5187221;28;20428;-63
2021/08/08 09:14:35;;;;;;;2.47;1.40;;;21.10;99.90;;;22.73;55.56;97627.97;5174583;28;20206;-61
2021/08/08 09:17:09;;;;;;;1.80;1.70;;;21.10;99.90;;;22.81;56.10;97625.41;5175892;28;20653;-62
2021/08/08 09:19:42;;;;;;;1.50;1.40;;;21.30;99.90;;;22.93;55.77;97617.63;5176238;28;20209;-63
2021/08/08 09:22:22;;;;;;;2.05;1.52;;;21.50;99.90;;;23.13;54.64;97628.19;5173076;28;20237;-63
2021/08/08 09:24:56;;;;;;;1.75;1.52;;;21.50;99.90;;;23.18;54.02;97631.69;5176775;28;20847;-61
2021/08/08 09:27:35;;;;;;;2.08;1.33;;;21.60;99.90;;;23.42;54.34;97636.09;5174272;28;20202;-62
2021/08/08 09:30:20;;;;;;;2.78;1.45;;;22.00;99.90;;;23.60;51.99;97643.06;5174935;28;20700;-63
2021/08/08 09:33:02;;;;;;;1.50;1.20;;;22.40;99.90;;;24.13;52.27;97634.47;5172833;28;20228;-62
2021/08/08 09:35:38;;;;;;;1.48;1.38;;;22.90;99.90;;;24.47;50.23;97632.72;5174790;28;20206;-63
2021/08/08 09:38:14;;;;;;;1.35;1.25;;;23.40;99.90;;;24.67;46.96;97642.25;5174167;28;20209;-63
2021/08/08 09:40:58;;;;;;;2.13;1.40;;;23.50;98.20;;;24.89;46.93;97640.44;5172041;28;20201;-63
2021/08/08 09:43:31;;;;;;;2.58;1.38;;;23.70;97.90;;;24.95;46.30;97629.94;5171772;28;20202;-61
2021/08/08 09:46:04;;;;;;;1.50;1.30;;;23.80;97.00;;;25.26;44.71;97632.47;5172614;28;20691;-63
2021/08/08 09:48:38;;;;;;;2.00;1.48;;;24.10;96.10;;;25.53;44.57;97629.72;5170251;28;20252;-62
2021/08/08 09:51:11;;;;;;;2.10;1.35;;;24.50;95.90;;;25.75;42.95;97624.31;5176463;28;20218;-62
2021/08/08 09:53:56;;;;;;;1.88;1.48;;;24.60;94.90;;;25.79;43.20;97623.44;5179714;28;20205;-63
2021/08/08 09:56:29;;;;;;;1.88;1.33;;;24.60;95.10;;;25.73;44.34;97632.19;5173277;28;20198;-62
2021/08/08 09:59:05;;;;;;;2.45;1.52;;;24.50;96.00;;;25.55;45.11;97633.19;5173306;28;20560;-62
2021/08/08 10:01:40;;;;;;;1.75;1.35;;;24.20;97.00;;;25.42;44.89;97635.88;5174045;28;20229;-61
2021/08/08 10:04:13;;;;;;;2.53;1.08;;;23.90;96.50;;;25.41;45.82;97629.78;5174009;28;20286;-63
2021/08/08 10:06:47;;;;;;;1.40;1.30;;;24.00;96.70;;;25.40;43.89;97633.25;5172534;28;20205;-62
2021/08/08 10:09:22;;;;;;;2.05;1.05;;;23.80;95.80;;;25.36;44.39;97631.56;5173847;28;20202;-60
2021/08/08 10:11:57;;;;;;;2.72;1.33;;;23.70;96.30;;;25.10;44.82;97629.03;5174071;28;20685;-63
2021/08/08 10:14:31;;;;;;;1.63;1.40;;;23.40;96.10;;;24.93;45.23;97629.97;5173362;28;20202;-60
2021/08/08 10:17:04;;;;;;;1.42;1.27;;;23.30;96.50;;;24.71;45.81;97636.13;5171413;28;20218;-61
2021/08/08 10:19:37;;;;;;;1.88;1.38;;;23.20;97.70;;;24.62;47.99;97633.56;5172511;28;20212;-61
2021/08/08 10:22:11;;;;;;;1.50;1.40;;;23.30;98.40;;;24.53;48.67;97631.81;5172606;28;20244;-63
2021/08/08 10:24:56;;;;;;;1.58;1.35;;;23.20;98.50;;;24.43;46.39;97635.31;5172966;28;20200;-60
2021/08/08 10:27:31;;;;;;;1.33;1.23;;;23.20;97.10;;;24.59;47.10;97642.25;5173208;28;20301;-61
2021/08/08 10:30:06;;;;;;;2.58;1.25;;;23.20;97.70;;;24.81;46.80;97634.34;5173861;28;20201;-60
2021/08/08 10:32:39;;;;;;;1.45;1.35;;;23.20;97.90;;;24.73;48.28;97630.03;5173918;28;20221;-61
2021/08/08 10:35:16;;;;;;;1.77;1.50;;;23.20;98.50;;;25.03;46.07;97632.53;5175505;28;20212;-62
2021/08/08 10:38:00;;;;;;;2.10;1.35;;;23.20;97.50;;;25.11;46.01;97626.41;5180138;28;20677;-62
2021/08/08 10:40:37;;;;;;;2.03;1.70;;;23.30;97.60;;;25.14;45.94;97631.66;5172990;28;20593;-62
2021/08/08 10:43:23;;;;;;;2.95;1.60;;;23.30;97.90;;;25.05;46.09;97626.44;5176765;28;20498;-63